sensor_id;sensor_type;location;lat;lon;timestamp;pressure;altitude;pressure_sealevel;temperature;humidity
18749;BME280;9503;53.560;10.246;2023-02-14T07:02:30;102969.06;;;4.52;100.00
18749;BME280;9503;53.560;10.246;2023-02-14T07:04:56;102974.06;;;4.75;100.00
18749;BME280;9503;53.560;10.246;2023-02-14T07:07:23;102974.22;;;4.77;100.00
18749;BME280;9503;53.560;10.246;2023-02-14T07:09:50;102976.88;;;5.01;100.00
18749;BME280;9503;53.560;10.246;2023-02-14T07:12:17;102975.94;;;5.16;100.00
18749;BME280;9503;53.560;10.246;2023-02-14T07:14:43;102978.31;;;5.31;100.00
18749;BME280;9503;53.560;10.246;2023-02-14T07:17:10;102978.31;;;5.31;100.00
18749;BME280;9503;53.560;10.246;2023-02-14T07:19:38;102977.97;;;5.27;100.00
18749;BME280;9503;53.560;10.246;2023-02-14T07:22:04;102982.03;;;5.50;100.00
18749;BME280;9503;53.560;10.246;2023-02-14T07:24:31;102973.50;;;5.49;100.00
18749;BME280;9503;53.560;10.246;2023-02-14T07:26:57;102989.31;;;5.63;100.00
18749;BME280;9503;53.560;10.246;2023-02-14T07:29:24;102979.16;;;5.47;100.00
18749;BME280;9503;53.560;10.246;2023-02-14T07:31:51;102984.66;;;5.59;100.00
18749;BME280;9503;53.560;10.246;2023-02-14T07:34:18;102984.66;;;5.59;100.00
18749;BME280;9503;53.560;10.246;2023-02-14T07:36:46;102986.75;;;5.63;100.00
18749;BME280;9503;53.560;10.246;2023-02-14T07:39:12;102979.03;;;5.70;100.00
18749;BME280;9503;53.560;10.246;2023-02-14T07:41:39;102982.75;;;5.89;100.00
18749;BME280;9503;53.560;10.246;2023-02-14T07:44:05;102977.38;;;5.95;100.00
18749;BME280;9503;53.560;10.246;2023-02-14T07:46:32;102980.16;;;6.05;100.00
18749;BME280;9503;53.560;10.246;2023-02-14T07:48:59;102979.41;;;6.06;100.00
18749;BME280;9503;53.560;10.246;2023-02-14T07:51:26;102987.22;;;6.16;100.00
18749;BME280;9503;53.560;10.246;2023-02-14T07:53:54;102979.75;;;6.18;100.00
18749;BME280;9503;53.560;10.246;2023-02-14T07:56:20;102974.44;;;6.41;100.00
18749;BME280;9503;53.560;10.246;2023-02-14T07:58:47;102978.38;;;6.54;100.00
18749;BME280;9503;53.560;10.246;2023-02-14T08:01:16;102974.09;;;6.29;100.00
18749;BME280;9503;53.560;10.246;2023-02-14T08:03:43;102984.19;;;6.53;100.00
18749;BME280;9503;53.560;10.246;2023-02-14T08:06:13;102979.78;;;6.77;100.00
18749;BME280;9503;53.560;10.246;2023-02-14T08:08:40;102989.81;;;6.75;100.00
18749;BME280;9503;53.560;10.246;2023-02-14T08:11:08;102987.00;;;6.98;100.00
18749;BME280;9503;53.560;10.246;2023-02-14T08:13:35;102981.28;;;7.18;100.00
18749;BME280;9503;53.560;10.246;2023-02-14T08:16:00;102981.88;;;7.33;100.00
18749;BME280;9503;53.560;10.246;2023-02-14T08:18:31;102987.44;;;6.85;100.00
18749;BME280;9503;53.560;10.246;2023-02-14T08:20:58;102983.84;;;7.01;100.00
18749;BME280;9503;53.560;10.246;2023-02-14T08:23:24;102983.72;;;6.90;100.00
18749;BME280;9503;53.560;10.246;2023-02-14T08:25:52;102977.69;;;7.33;100.00
18749;BME280;9503;53.560;10.246;2023-02-14T08:28:20;102979.47;;;7.60;100.00
18749;BME280;9503;53.560;10.246;2023-02-14T08:30:47;102978.50;;;7.94;100.00
18749;BME280;9503;53.560;10.246;2023-02-14T08:33:13;102974.72;;;7.91;100.00
18749;BME280;9503;53.560;10.246;2023-02-14T08:35:40;102981.97;;;7.78;100.00
18749;BME280;9503;53.560;10.246;2023-02-14T08:38:07;102983.09;;;7.45;100.00
18749;BME280;9503;53.560;10.246;2023-02-14T08:40:34;102986.25;;;7.08;100.00
18749;BME280;9503;53.560;10.246;2023-02-14T08:43:01;102974.13;;;7.05;100.00
18749;BME280;9503;53.560;10.246;2023-02-14T08:45:29;102978.31;;;7.31;100.00
18749;BME280;9503;53.560;10.246;2023-02-14T08:48:00;102981.91;;;7.24;100.00
18749;BME280;9503;53.560;10.246;2023-02-14T08:50:27;102983.72;;;7.42;100.00
18749;BME280;9503;53.560;10.246;2023-02-14T08:52:54;102976.78;;;7.50;100.00
18749;BME280;9503;53.560;10.246;2023-02-14T08:55:20;102980.69;;;7.46;100.00
18749;BME280;9503;53.560;10.246;2023-02-14T08:57:47;102975.13;;;7.59;100.00
18749;BME280;9503;53.560;10.246;2023-02-14T09:00:15;102980.00;;;7.84;100.00
18749;BME280;9503;53.560;10.246;2023-02-14T09:02:43;102983.56;;;8.03;100.00
18749;BME280;9503;53.560;10.246;2023-02-14T09:05:10;102987.13;;;8.14;100.00
18749;BME280;9503;53.560;10.246;2023-02-14T09:07:37;102978.34;;;7.84;100.00
18749;BME280;9503;53.560;10.246;2023-02-14T09:10:05;102975.47;;;7.90;100.00
18749;BME280;9503;53.560;10.246;2023-02-14T09:12:32;102980.28;;;7.95;100.00
18749;BME280;9503;53.560;10.246;2023-02-14T09:14:58;102979.94;;;8.10;100.00
18749;BME280;9503;53.560;10.246;2023-02-14T09:17:25;102978.69;;;8.23;100.00
18749;BME280;9503;53.560;10.246;2023-02-14T09:19:53;102977.44;;;8.28;100.00
18749;BME280;9503;53.560;10.246;2023-02-14T09:22:19;102982.94;;;8.06;100.00
18749;BME280;9503;53.560;10.246;2023-02-14T09:24:46;102979.00;;;8.18;100.00
18749;BME280;9503;53.560;10.246;2023-02-14T09:27:13;102975.63;;;8.27;100.00
18749;BME280;9503;53.560;10.246;2023-02-14T09:29:40;102972.75;;;8.33;100.00
18749;BME280;9503;53.560;10.246;2023-02-14T09:32:06;102971.97;;;8.43;100.00
18749;BME280;9503;53.560;10.246;2023-02-14T09:34:34;102974.28;;;8.58;100.00
18749;BME280;9503;53.560;10.246;2023-02-14T09:37:02;102975.06;;;8.57;100.00
18749;BME280;9503;53.560;10.246;2023-02-14T09:39:46;102969.16;;;8.40;100.00
18749;BME280;9503;53.560;10.246;2023-02-14T09:42:25;102960.66;;;8.13;100.00
18749;BME280;9503;53.560;10.246;2023-02-14T09:45:01;102964.97;;;8.59;100.00
18749;BME280;9503;53.560;10.246;2023-02-14T09:47:34;102965.19;;;8.71;100.00
18749;BME280;9503;53.560;10.246;2023-02-14T09:50:03;102964.75;;;8.47;100.00
18749;BME280;9503;53.560;10.246;2023-02-14T09:52:32;102962.00;;;8.73;100.00
18749;BME280;9503;53.560;10.246;2023-02-14T09:55:01;102955.63;;;9.06;100.00
18749;BME280;9503;53.560;10.246;2023-02-14T09:57:35;102958.81;;;9.32;100.00
18749;BME280;9503;53.560;10.246;2023-02-14T10:00:14;102955.53;;;9.14;100.00
18749;BME280;9503;53.560;10.246;2023-02-14T10:02:52;102953.88;;;9.63;100.00
18749;BME280;9503;53.560;10.246;2023-02-14T10:05:25;102949.75;;;10.04;100.00
18749;BME280;9503;53.560;10.246;2023-02-14T10:08:02;102953.56;;;10.28;99.94
18749;BME280;9503;53.560;10.246;2023-02-14T10:10:36;102952.28;;;10.64;98.76
18749;BME280;9503;53.560;10.246;2023-02-14T10:13:06;102947.16;;;10.64;96.84
18749;BME280;9503;53.560;10.246;2023-02-14T10:15:39;102952.41;;;10.86;95.74
18749;BME280;9503;53.560;10.246;2023-02-14T10:18:10;102957.03;;;10.90;96.61
18749;BME280;9503;53.560;10.246;2023-02-14T10:20:41;102951.78;;;10.78;95.77
18749;BME280;9503;53.560;10.246;2023-02-14T10:23:21;102950.75;;;10.25;96.89
18749;BME280;9503;53.560;10.246;2023-02-14T10:25:53;102944.09;;;10.47;97.52
18749;BME280;9503;53.560;10.246;2023-02-14T10:28:29;102955.63;;;10.32;98.22
18749;BME280;9503;53.560;10.246;2023-02-14T10:31:06;102957.31;;;10.62;97.61
18749;BME280;9503;53.560;10.246;2023-02-14T10:33:37;102959.75;;;10.81;97.21
18749;BME280;9503;53.560;10.246;2023-02-14T10:36:13;102947.78;;;10.92;96.21
18749;BME280;9503;53.560;10.246;2023-02-14T10:38:49;102939.19;;;10.91;95.26
18749;BME280;9503;53.560;10.246;2023-02-14T10:41:24;102938.63;;;11.16;94.91
18749;BME280;9503;53.560;10.246;2023-02-14T10:44:03;102935.59;;;11.10;94.04
18749;BME280;9503;53.560;10.246;2023-02-14T10:46:41;102940.47;;;10.96;96.10
18749;BME280;9503;53.560;10.246;2023-02-14T10:49:23;102934.03;;;11.12;95.25
18749;BME280;9503;53.560;10.246;2023-02-14T10:51:54;102930.44;;;11.10;95.36
18749;BME280;9503;53.560;10.246;2023-02-14T10:54:26;102925.78;;;11.16;95.50
18749;BME280;9503;53.560;10.246;2023-02-14T10:56:57;102923.44;;;11.29;94.67
18749;BME280;9503;53.560;10.246;2023-02-14T10:59:27;102927.25;;;11.66;93.58
18749;BME280;9503;53.560;10.246;2023-02-14T11:01:57;102928.72;;;11.62;92.69
18749;BME280;9503;53.560;10.246;2023-02-14T11:04:25;102933.38;;;11.78;93.18
18749;BME280;9503;53.560;10.246;2023-02-14T11:06:52;102933.00;;;11.84;90.74
18749;BME280;9503;53.560;10.246;2023-02-14T11:09:19;102930.59;;;11.75;92.01
18749;BME280;9503;53.560;10.246;2023-02-14T11:11:49;102931.38;;;11.96;92.48
18749;BME280;9503;53.560;10.246;2023-02-14T11:14:19;102929.69;;;12.18;90.84
18749;BME280;9503;53.560;10.246;2023-02-14T11:16:47;102921.81;;;12.39;89.41
18749;BME280;9503;53.560;10.246;2023-02-14T11:19:20;102925.81;;;12.57;88.79
18749;BME280;9503;53.560;10.246;2023-02-14T11:21:48;102921.22;;;12.65;88.15
18749;BME280;9503;53.560;10.246;2023-02-14T11:24:17;102919.63;;;12.55;88.04
18749;BME280;9503;53.560;10.246;2023-02-14T11:26:47;102917.38;;;12.48;88.00
18749;BME280;9503;53.560;10.246;2023-02-14T11:29:24;102914.63;;;12.23;90.50
18749;BME280;9503;53.560;10.246;2023-02-14T11:31:51;102904.19;;;12.43;89.70
18749;BME280;9503;53.560;10.246;2023-02-14T11:34:28;102905.84;;;12.55;88.98
18749;BME280;9503;53.560;10.246;2023-02-14T11:36:56;102898.34;;;12.34;89.31
18749;BME280;9503;53.560;10.246;2023-02-14T11:39:28;102898.72;;;12.62;88.45
18749;BME280;9503;53.560;10.246;2023-02-14T11:41:57;102879.22;;;12.54;87.96
18749;BME280;9503;53.560;10.246;2023-02-14T11:44:26;102890.22;;;12.52;87.96
18749;BME280;9503;53.560;10.246;2023-02-14T11:46:54;102879.25;;;12.66;88.15
18749;BME280;9503;53.560;10.246;2023-02-14T11:49:24;102876.69;;;12.78;87.28
18749;BME280;9503;53.560;10.246;2023-02-14T11:51:53;102872.66;;;12.81;87.21
18749;BME280;9503;53.560;10.246;2023-02-14T11:54:28;102871.72;;;12.34;87.94
18749;BME280;9503;53.560;10.246;2023-02-14T11:57:02;102864.63;;;12.20;90.37
18749;BME280;9503;53.560;10.246;2023-02-14T11:59:33;102866.28;;;12.19;90.20
18749;BME280;9503;53.560;10.246;2023-02-14T12:02:21;102860.41;;;12.32;89.22
18749;BME280;9503;53.560;10.246;2023-02-14T12:04:51;102859.44;;;12.08;89.62
18749;BME280;9503;53.560;10.246;2023-02-14T12:07:22;102851.78;;;12.31;91.32
18749;BME280;9503;53.560;10.246;2023-02-14T12:10:07;102835.28;;;12.51;88.82
18749;BME280;9503;53.560;10.246;2023-02-14T12:12:35;102843.97;;;12.30;88.63
18749;BME280;9503;53.560;10.246;2023-02-14T12:15:24;102838.34;;;12.24;91.14
18749;BME280;9503;53.560;10.246;2023-02-14T12:17:57;102836.53;;;12.56;89.86
18749;BME280;9503;53.560;10.246;2023-02-14T12:20:34;102835.06;;;12.95;87.88
18749;BME280;9503;53.560;10.246;2023-02-14T12:23:10;102836.31;;;13.00;86.92
18749;BME280;9503;53.560;10.246;2023-02-14T12:25:44;102831.25;;;13.25;87.01
18749;BME280;9503;53.560;10.246;2023-02-14T12:28:18;102823.25;;;13.34;85.43
18749;BME280;9503;53.560;10.246;2023-02-14T12:30:48;102818.50;;;12.80;85.50
18749;BME280;9503;53.560;10.246;2023-02-14T12:33:17;102823.88;;;12.83;86.24
18749;BME280;9503;53.560;10.246;2023-02-14T12:35:52;102815.25;;;12.94;86.50
18749;BME280;9503;53.560;10.246;2023-02-14T12:38:27;102823.63;;;13.03;85.75
18749;BME280;9503;53.560;10.246;2023-02-14T12:41:03;102823.19;;;13.09;86.06
18749;BME280;9503;53.560;10.246;2023-02-14T12:43:46;102820.38;;;13.06;85.95
18749;BME280;9503;53.560;10.246;2023-02-14T12:46:37;102814.91;;;13.24;85.80
18749;BME280;9503;53.560;10.246;2023-02-14T12:49:20;102803.00;;;13.38;84.61
18749;BME280;9503;53.560;10.246;2023-02-14T12:52:00;102799.72;;;13.41;83.57
18749;BME280;9503;53.560;10.246;2023-02-14T12:54:48;102808.59;;;13.33;83.77
18749;BME280;9503;53.560;10.246;2023-02-14T12:57:29;102800.59;;;13.53;83.26
18749;BME280;9503;53.560;10.246;2023-02-14T13:00:10;102795.88;;;13.22;83.32
18749;BME280;9503;53.560;10.246;2023-02-14T13:03:16;102782.28;;;13.13;85.04
18749;BME280;9503;53.560;10.246;2023-02-14T13:05:57;102784.41;;;13.19;85.10
18749;BME280;9503;53.560;10.246;2023-02-14T13:08:38;102782.41;;;13.15;86.04
18749;BME280;9503;53.560;10.246;2023-02-14T13:11:17;102778.41;;;12.95;86.03
18749;BME280;9503;53.560;10.246;2023-02-14T13:13:53;102777.19;;;12.90;86.57
18749;BME280;9503;53.560;10.246;2023-02-14T13:16:27;102768.38;;;12.75;87.10
18749;BME280;9503;53.560;10.246;2023-02-14T13:18:58;102761.88;;;12.33;88.33
18749;BME280;9503;53.560;10.246;2023-02-14T13:21:32;102766.56;;;12.38;88.95
18749;BME280;9503;53.560;10.246;2023-02-14T13:24:10;102761.22;;;12.47;88.49
18749;BME280;9503;53.560;10.246;2023-02-14T13:26:40;102763.91;;;12.37;89.80
18749;BME280;9503;53.560;10.246;2023-02-14T13:29:12;102762.88;;;12.23;90.46
18749;BME280;9503;53.560;10.246;2023-02-14T13:31:42;102756.84;;;12.23;91.22
18749;BME280;9503;53.560;10.246;2023-02-14T13:34:18;102759.41;;;11.77;92.16
18749;BME280;9503;53.560;10.246;2023-02-14T13:36:45;102756.16;;;12.13;92.26
18749;BME280;9503;53.560;10.246;2023-02-14T13:39:19;102747.22;;;12.20;91.77
18749;BME280;9503;53.560;10.246;2023-02-14T13:41:48;102744.25;;;11.80;93.15
18749;BME280;9503;53.560;10.246;2023-02-14T13:44:41;102740.94;;;12.16;91.42
18749;BME280;9503;53.560;10.246;2023-02-14T13:47:15;102742.88;;;12.31;91.09
18749;BME280;9503;53.560;10.246;2023-02-14T13:49:47;102740.63;;;12.24;91.03
18749;BME280;9503;53.560;10.246;2023-02-14T13:52:42;102738.06;;;12.35;90.95
18749;BME280;9503;53.560;10.246;2023-02-14T13:55:15;102733.47;;;12.66;89.94
18749;BME280;9503;53.560;10.246;2023-02-14T13:57:43;102738.25;;;12.73;88.65
18749;BME280;9503;53.560;10.246;2023-02-14T14:03:51;102722.06;;;12.16;90.45
18749;BME280;9503;53.560;10.246;2023-02-14T14:06:19;102726.72;;;12.80;89.30
18749;BME280;9503;53.560;10.246;2023-02-14T14:08:48;102717.25;;;13.16;87.09
18749;BME280;9503;53.560;10.246;2023-02-14T14:14:32;102719.94;;;13.42;85.70
18749;BME280;9503;53.560;10.246;2023-02-14T14:17:00;102710.38;;;13.53;84.33
18749;BME280;9503;53.560;10.246;2023-02-14T14:19:41;102717.09;;;13.51;84.79
18749;BME280;9503;53.560;10.246;2023-02-14T14:22:09;102715.16;;;13.60;82.34
18749;BME280;9503;53.560;10.246;2023-02-14T14:24:39;102719.84;;;13.79;82.26
18749;BME280;9503;53.560;10.246;2023-02-14T14:27:12;102719.81;;;14.17;80.97
18749;BME280;9503;53.560;10.246;2023-02-14T14:29:49;102721.81;;;14.61;79.25
18749;BME280;9503;53.560;10.246;2023-02-14T14:32:18;102723.97;;;14.95;77.90
18749;BME280;9503;53.560;10.246;2023-02-14T14:34:51;102711.00;;;14.27;79.79
18749;BME280;9503;53.560;10.246;2023-02-14T14:37:20;102719.84;;;14.70;79.12
18749;BME280;9503;53.560;10.246;2023-02-14T14:39:51;102716.47;;;14.58;78.49
18749;BME280;9503;53.560;10.246;2023-02-14T14:42:19;102718.22;;;14.85;78.63
18749;BME280;9503;53.560;10.246;2023-02-14T14:44:48;102706.06;;;13.78;80.16
18749;BME280;9503;53.560;10.246;2023-02-14T14:47:18;102710.22;;;13.63;82.33
18749;BME280;9503;53.560;10.246;2023-02-14T14:49:45;102706.00;;;13.90;81.84
18749;BME280;9503;53.560;10.246;2023-02-14T14:52:30;102703.56;;;13.17;83.70
18749;BME280;9503;53.560;10.246;2023-02-14T14:54:58;102690.94;;;13.45;85.38
18749;BME280;9503;53.560;10.246;2023-02-14T14:57:26;102694.78;;;13.76;83.00
18749;BME280;9503;53.560;10.246;2023-02-14T15:00:16;102683.41;;;13.99;82.28
18749;BME280;9503;53.560;10.246;2023-02-14T15:02:54;102692.81;;;12.86;85.86
18749;BME280;9503;53.560;10.246;2023-02-14T15:05:23;102690.59;;;12.79;87.12
18749;BME280;9503;53.560;10.246;2023-02-14T15:07:51;102689.22;;;12.84;89.12
18749;BME280;9503;53.560;10.246;2023-02-14T15:10:24;102686.50;;;12.22;89.98
18749;BME280;9503;53.560;10.246;2023-02-14T15:12:52;102686.09;;;13.24;87.32
18749;BME280;9503;53.560;10.246;2023-02-14T15:15:39;102675.88;;;13.26;86.71
18749;BME280;9503;53.560;10.246;2023-02-14T15:18:06;102674.78;;;12.86;86.94
18749;BME280;9503;53.560;10.246;2023-02-14T15:20:33;102679.50;;;13.66;84.62
18749;BME280;9503;53.560;10.246;2023-02-14T15:23:03;102667.34;;;13.02;86.04
18749;BME280;9503;53.560;10.246;2023-02-14T15:25:31;102674.94;;;13.75;83.77
18749;BME280;9503;53.560;10.246;2023-02-14T15:27:59;102670.78;;;13.77;84.29
18749;BME280;9503;53.560;10.246;2023-02-14T15:30:29;102663.78;;;13.88;83.69
18749;BME280;9503;53.560;10.246;2023-02-14T15:32:59;102667.63;;;13.95;82.76
18749;BME280;9503;53.560;10.246;2023-02-14T15:35:28;102667.34;;;13.90;82.45
18749;BME280;9503;53.560;10.246;2023-02-14T15:37:57;102648.97;;;13.34;84.55
18749;BME280;9503;53.560;10.246;2023-02-14T15:40:29;102654.88;;;13.58;84.48
18749;BME280;9503;53.560;10.246;2023-02-14T15:43:10;102657.66;;;13.23;85.20
18749;BME280;9503;53.560;10.246;2023-02-14T15:45:38;102647.47;;;13.13;86.25
18749;BME280;9503;53.560;10.246;2023-02-14T15:48:11;102657.84;;;12.64;89.51
18749;BME280;9503;53.560;10.246;2023-02-14T15:50:43;102639.94;;;12.66;88.77
18749;BME280;9503;53.560;10.246;2023-02-14T15:53:27;102650.78;;;12.62;89.14
18749;BME280;9503;53.560;10.246;2023-02-14T15:56:03;102641.31;;;12.26;90.18
18749;BME280;9503;53.560;10.246;2023-02-14T15:58:32;102639.97;;;12.31;91.04
18749;BME280;9503;53.560;10.246;2023-02-14T16:01:01;102640.25;;;11.99;92.37
18749;BME280;9503;53.560;10.246;2023-02-14T16:03:31;102641.56;;;11.94;93.06
18749;BME280;9503;53.560;10.246;2023-02-14T16:06:00;102636.25;;;11.23;96.85
18749;BME280;9503;53.560;10.246;2023-02-14T16:08:30;102636.97;;;10.77;98.87
18749;BME280;9503;53.560;10.246;2023-02-14T16:10:58;102635.88;;;10.63;100.00
18749;BME280;9503;53.560;10.246;2023-02-14T16:13:31;102627.16;;;10.39;100.00
18749;BME280;9503;53.560;10.246;2023-02-14T16:16:00;102629.88;;;10.20;100.00
18749;BME280;9503;53.560;10.246;2023-02-14T16:18:35;102623.72;;;9.86;100.00
18749;BME280;9503;53.560;10.246;2023-02-14T16:21:15;102629.78;;;9.56;100.00
18749;BME280;9503;53.560;10.246;2023-02-14T16:23:43;102624.28;;;9.31;100.00
18749;BME280;9503;53.560;10.246;2023-02-14T16:26:10;102630.28;;;9.01;100.00
18749;BME280;9503;53.560;10.246;2023-02-14T16:28:39;102627.06;;;8.83;100.00
18749;BME280;9503;53.560;10.246;2023-02-14T16:31:06;102625.63;;;8.87;100.00
18749;BME280;9503;53.560;10.246;2023-02-14T16:33:37;102619.31;;;8.63;100.00
18749;BME280;9503;53.560;10.246;2023-02-14T16:36:06;102615.63;;;8.60;100.00
18749;BME280;9503;53.560;10.246;2023-02-14T16:38:38;102618.72;;;8.37;100.00
18749;BME280;9503;53.560;10.246;2023-02-14T16:41:12;102614.19;;;8.24;100.00
18749;BME280;9503;53.560;10.246;2023-02-14T16:43:41;102617.84;;;8.17;100.00
18749;BME280;9503;53.560;10.246;2023-02-14T16:46:10;102609.59;;;8.01;100.00
18749;BME280;9503;53.560;10.246;2023-02-14T16:48:36;102606.28;;;7.83;100.00
18749;BME280;9503;53.560;10.246;2023-02-14T16:51:03;102607.72;;;7.90;100.00
18749;BME280;9503;53.560;10.246;2023-02-14T16:53:30;102605.56;;;7.65;100.00
18749;BME280;9503;53.560;10.246;2023-02-14T16:55:57;102606.16;;;7.63;100.00
18749;BME280;9503;53.560;10.246;2023-02-14T16:58:27;102616.38;;;7.63;100.00
18749;BME280;9503;53.560;10.246;2023-02-14T17:00:56;102610.09;;;7.59;100.00
18749;BME280;9503;53.560;10.246;2023-02-14T17:03:23;102611.63;;;7.57;100.00
18749;BME280;9503;53.560;10.246;2023-02-14T17:05:50;102603.88;;;7.47;100.00
18749;BME280;9503;53.560;10.246;2023-02-14T17:08:17;102604.41;;;7.34;100.00
18749;BME280;9503;53.560;10.246;2023-02-14T17:10:45;102601.59;;;7.31;100.00
18749;BME280;9503;53.560;10.246;2023-02-14T17:13:14;102618.41;;;7.29;100.00
18749;BME280;9503;53.560;10.246;2023-02-14T17:15:43;102607.50;;;7.22;100.00
18749;BME280;9503;53.560;10.246;2023-02-14T17:18:12;102614.16;;;7.11;100.00
18749;BME280;9503;53.560;10.246;2023-02-14T17:20:40;102604.72;;;7.10;100.00
18749;BME280;9503;53.560;10.246;2023-02-14T17:23:07;102605.16;;;7.14;100.00
18749;BME280;9503;53.560;10.246;2023-02-14T17:25:34;102604.59;;;7.08;100.00
18749;BME280;9503;53.560;10.246;2023-02-14T17:28:01;102607.41;;;7.11;100.00
18749;BME280;9503;53.560;10.246;2023-02-14T17:30:27;102602.22;;;7.01;100.00
18749;BME280;9503;53.560;10.246;2023-02-14T17:32:54;102601.34;;;7.01;100.00
18749;BME280;9503;53.560;10.246;2023-02-14T17:35:22;102599.53;;;7.00;100.00
18749;BME280;9503;53.560;10.246;2023-02-14T17:37:48;102597.19;;;6.92;100.00
18749;BME280;9503;53.560;10.246;2023-02-14T17:40:15;102602.22;;;7.01;100.00
18749;BME280;9503;53.560;10.246;2023-02-14T17:42:42;102597.25;;;7.03;100.00
18749;BME280;9503;53.560;10.246;2023-02-14T17:45:09;102600.56;;;7.02;100.00
18749;BME280;9503;53.560;10.246;2023-02-14T17:47:37;102594.13;;;6.97;100.00
18749;BME280;9503;53.560;10.246;2023-02-14T17:50:05;102594.00;;;6.95;100.00
18749;BME280;9503;53.560;10.246;2023-02-14T17:52:34;102596.88;;;6.89;100.00
18749;BME280;9503;53.560;10.246;2023-02-14T17:55:00;102596.59;;;6.86;100.00
18749;BME280;9503;53.560;10.246;2023-02-14T17:57:28;102594.94;;;6.87;100.00
18749;BME280;9503;53.560;10.246;2023-02-14T17:59:55;102593.63;;;6.82;100.00
